sensor_id;sensor_type;location;lat;lon;timestamp;temperature;humidity
80192;SHT31;69513;51.990;5.704;2023-04-30T00:01:53;11.7;59.5
80192;SHT31;69513;51.990;5.704;2023-04-30T00:04:23;11.7;59.7
80192;SHT31;69513;51.990;5.704;2023-04-30T00:06:53;11.7;60.0
80192;SHT31;69513;51.990;5.704;2023-04-30T00:09:23;11.6;60.0
80192;SHT31;69513;51.990;5.704;2023-04-30T00:11:55;11.6;60.0
80192;SHT31;69513;51.990;5.704;2023-04-30T00:14:25;11.6;60.2
80192;SHT31;69513;51.990;5.704;2023-04-30T00:16:54;11.5;60.3
80192;SHT31;69513;51.990;5.704;2023-04-30T00:19:24;11.5;60.5
80192;SHT31;69513;51.990;5.704;2023-04-30T00:21:53;11.5;60.6
80192;SHT31;69513;51.990;5.704;2023-04-30T00:24:22;11.4;60.6
80192;SHT31;69513;51.990;5.704;2023-04-30T00:26:52;11.4;60.8
80192;SHT31;69513;51.990;5.704;2023-04-30T00:29:22;11.4;61.0
80192;SHT31;69513;51.990;5.704;2023-04-30T00:31:52;11.3;60.9
80192;SHT31;69513;51.990;5.704;2023-04-30T00:34:21;11.3;61.0
80192;SHT31;69513;51.990;5.704;2023-04-30T00:36:52;11.3;60.8
80192;SHT31;69513;51.990;5.704;2023-04-30T00:39:22;11.2;60.8
80192;SHT31;69513;51.990;5.704;2023-04-30T00:41:52;11.2;60.9
80192;SHT31;69513;51.990;5.704;2023-04-30T00:44:21;11.2;61.2
80192;SHT31;69513;51.990;5.704;2023-04-30T00:46:51;11.1;61.4
80192;SHT31;69513;51.990;5.704;2023-04-30T00:49:20;11.1;61.8
80192;SHT31;69513;51.990;5.704;2023-04-30T00:51:51;11.1;61.8
80192;SHT31;69513;51.990;5.704;2023-04-30T00:54:23;11.1;62.2
80192;SHT31;69513;51.990;5.704;2023-04-30T00:56:54;11.0;62.1
80192;SHT31;69513;51.990;5.704;2023-04-30T00:59:24;11.0;62.4
80192;SHT31;69513;51.990;5.704;2023-04-30T01:01:56;11.0;62.9
80192;SHT31;69513;51.990;5.704;2023-04-30T01:04:27;11.0;62.7
80192;SHT31;69513;51.990;5.704;2023-04-30T01:06:59;10.9;62.6
80192;SHT31;69513;51.990;5.704;2023-04-30T01:09:33;10.9;62.6
80192;SHT31;69513;51.990;5.704;2023-04-30T01:12:09;10.9;62.4
80192;SHT31;69513;51.990;5.704;2023-04-30T01:14:55;10.9;62.8
80192;SHT31;69513;51.990;5.704;2023-04-30T01:17:33;10.9;62.7
80192;SHT31;69513;51.990;5.704;2023-04-30T01:20:08;10.8;62.7
80192;SHT31;69513;51.990;5.704;2023-04-30T01:22:49;10.8;62.9
80192;SHT31;69513;51.990;5.704;2023-04-30T01:25:40;10.8;63.1
80192;SHT31;69513;51.990;5.704;2023-04-30T01:28:12;10.8;63.1
80192;SHT31;69513;51.990;5.704;2023-04-30T01:30:44;10.8;62.9
80192;SHT31;69513;51.990;5.704;2023-04-30T01:33:14;10.7;63.1
80192;SHT31;69513;51.990;5.704;2023-04-30T01:36:56;10.7;63.0
80192;SHT31;69513;51.990;5.704;2023-04-30T01:39:52;10.7;63.0
80192;SHT31;69513;51.990;5.704;2023-04-30T01:42:29;10.7;62.7
80192;SHT31;69513;51.990;5.704;2023-04-30T01:45:15;10.7;62.9
80192;SHT31;69513;51.990;5.704;2023-04-30T01:47:55;10.6;62.9
80192;SHT31;69513;51.990;5.704;2023-04-30T01:50:40;10.6;62.6
80192;SHT31;69513;51.990;5.704;2023-04-30T01:53:17;10.6;62.4
80192;SHT31;69513;51.990;5.704;2023-04-30T01:55:58;10.6;62.7
80192;SHT31;69513;51.990;5.704;2023-04-30T01:58:31;10.6;62.9
80192;SHT31;69513;51.990;5.704;2023-04-30T02:01:02;10.5;63.1
80192;SHT31;69513;51.990;5.704;2023-04-30T02:03:33;10.5;63.3
80192;SHT31;69513;51.990;5.704;2023-04-30T02:06:03;10.5;63.5
80192;SHT31;69513;51.990;5.704;2023-04-30T02:08:32;10.5;63.3
80192;SHT31;69513;51.990;5.704;2023-04-30T02:11:02;10.4;63.7
80192;SHT31;69513;51.990;5.704;2023-04-30T02:13:32;10.4;63.5
80192;SHT31;69513;51.990;5.704;2023-04-30T02:16:04;10.4;63.7
80192;SHT31;69513;51.990;5.704;2023-04-30T02:18:34;10.4;63.5
80192;SHT31;69513;51.990;5.704;2023-04-30T02:21:04;10.4;63.9
80192;SHT31;69513;51.990;5.704;2023-04-30T02:23:33;10.3;64.0
80192;SHT31;69513;51.990;5.704;2023-04-30T02:26:02;10.3;64.3
80192;SHT31;69513;51.990;5.704;2023-04-30T02:28:32;10.3;64.2
80192;SHT31;69513;51.990;5.704;2023-04-30T02:31:03;10.3;64.1
80192;SHT31;69513;51.990;5.704;2023-04-30T02:33:32;10.3;64.3
80192;SHT31;69513;51.990;5.704;2023-04-30T02:36:02;10.3;64.3
80192;SHT31;69513;51.990;5.704;2023-04-30T02:38:32;10.2;64.4
80192;SHT31;69513;51.990;5.704;2023-04-30T02:41:02;10.2;64.5
80192;SHT31;69513;51.990;5.704;2023-04-30T02:43:32;10.2;64.4
80192;SHT31;69513;51.990;5.704;2023-04-30T02:46:01;10.2;64.4
80192;SHT31;69513;51.990;5.704;2023-04-30T02:48:32;10.2;64.3
80192;SHT31;69513;51.990;5.704;2023-04-30T02:51:01;10.2;64.3
80192;SHT31;69513;51.990;5.704;2023-04-30T02:53:32;10.2;64.0
80192;SHT31;69513;51.990;5.704;2023-04-30T02:56:02;10.1;64.2
80192;SHT31;69513;51.990;5.704;2023-04-30T02:58:32;10.1;64.4
80192;SHT31;69513;51.990;5.704;2023-04-30T03:01:02;10.1;64.4
80192;SHT31;69513;51.990;5.704;2023-04-30T03:03:31;10.1;64.4
80192;SHT31;69513;51.990;5.704;2023-04-30T03:06:02;10.1;64.3
80192;SHT31;69513;51.990;5.704;2023-04-30T03:08:32;10.0;64.5
80192;SHT31;69513;51.990;5.704;2023-04-30T03:11:02;10.0;64.8
80192;SHT31;69513;51.990;5.704;2023-04-30T03:13:32;10.0;65.0
80192;SHT31;69513;51.990;5.704;2023-04-30T03:16:03;10.0;65.1
80192;SHT31;69513;51.990;5.704;2023-04-30T03:18:34;10.0;65.0
80192;SHT31;69513;51.990;5.704;2023-04-30T03:21:04;9.9;65.2
80192;SHT31;69513;51.990;5.704;2023-04-30T03:23:36;9.9;65.1
80192;SHT31;69513;51.990;5.704;2023-04-30T03:26:06;9.9;65.1
80192;SHT31;69513;51.990;5.704;2023-04-30T03:28:36;9.9;65.1
80192;SHT31;69513;51.990;5.704;2023-04-30T03:31:06;9.9;65.1
80192;SHT31;69513;51.990;5.704;2023-04-30T03:33:35;9.9;65.1
80192;SHT31;69513;51.990;5.704;2023-04-30T03:36:06;9.8;65.1
80192;SHT31;69513;51.990;5.704;2023-04-30T03:38:36;9.8;65.1
80192;SHT31;69513;51.990;5.704;2023-04-30T03:41:06;9.8;65.1
80192;SHT31;69513;51.990;5.704;2023-04-30T03:43:36;9.8;65.1
80192;SHT31;69513;51.990;5.704;2023-04-30T03:46:06;9.8;65.0
80192;SHT31;69513;51.990;5.704;2023-04-30T03:48:36;9.7;65.0
80192;SHT31;69513;51.990;5.704;2023-04-30T03:51:05;9.7;64.9
80192;SHT31;69513;51.990;5.704;2023-04-30T03:53:36;9.7;65.3
80192;SHT31;69513;51.990;5.704;2023-04-30T03:56:08;9.7;65.2
80192;SHT31;69513;51.990;5.704;2023-04-30T03:58:38;9.6;65.3
80192;SHT31;69513;51.990;5.704;2023-04-30T04:01:08;9.6;65.5
80192;SHT31;69513;51.990;5.704;2023-04-30T04:03:38;9.6;65.4
80192;SHT31;69513;51.990;5.704;2023-04-30T04:06:08;9.6;65.5
80192;SHT31;69513;51.990;5.704;2023-04-30T04:08:37;9.6;65.5
80192;SHT31;69513;51.990;5.704;2023-04-30T04:11:11;9.6;65.9
80192;SHT31;69513;51.990;5.704;2023-04-30T04:13:42;9.6;66.1
80192;SHT31;69513;51.990;5.704;2023-04-30T04:16:13;9.5;65.9
80192;SHT31;69513;51.990;5.704;2023-04-30T04:18:42;9.5;66.0
80192;SHT31;69513;51.990;5.704;2023-04-30T04:21:12;9.5;66.2
80192;SHT31;69513;51.990;5.704;2023-04-30T04:23:42;9.5;66.1
80192;SHT31;69513;51.990;5.704;2023-04-30T04:26:12;9.5;66.0
80192;SHT31;69513;51.990;5.704;2023-04-30T04:28:46;9.5;66.2
80192;SHT31;69513;51.990;5.704;2023-04-30T04:31:17;9.5;65.9
80192;SHT31;69513;51.990;5.704;2023-04-30T04:33:46;9.4;66.0
80192;SHT31;69513;51.990;5.704;2023-04-30T04:36:17;9.4;66.0
80192;SHT31;69513;51.990;5.704;2023-04-30T04:38:46;9.4;66.3
80192;SHT31;69513;51.990;5.704;2023-04-30T04:41:16;9.4;66.2
80192;SHT31;69513;51.990;5.704;2023-04-30T04:43:45;9.4;66.3
80192;SHT31;69513;51.990;5.704;2023-04-30T04:46:16;9.4;66.4
80192;SHT31;69513;51.990;5.704;2023-04-30T04:48:48;9.4;66.5
80192;SHT31;69513;51.990;5.704;2023-04-30T04:51:20;9.4;66.6
80192;SHT31;69513;51.990;5.704;2023-04-30T04:53:49;9.4;66.7
80192;SHT31;69513;51.990;5.704;2023-04-30T04:56:19;9.4;66.6
80192;SHT31;69513;51.990;5.704;2023-04-30T04:58:48;9.4;66.7
80192;SHT31;69513;51.990;5.704;2023-04-30T05:01:20;9.4;66.7
80192;SHT31;69513;51.990;5.704;2023-04-30T05:03:49;9.4;66.5
80192;SHT31;69513;51.990;5.704;2023-04-30T05:06:20;9.4;66.6
80192;SHT31;69513;51.990;5.704;2023-04-30T05:08:50;9.4;66.7
80192;SHT31;69513;51.990;5.704;2023-04-30T05:11:20;9.4;66.8
80192;SHT31;69513;51.990;5.704;2023-04-30T05:13:52;9.4;66.8
80192;SHT31;69513;51.990;5.704;2023-04-30T05:16:21;9.4;66.9
80192;SHT31;69513;51.990;5.704;2023-04-30T05:18:52;9.4;67.1
80192;SHT31;69513;51.990;5.704;2023-04-30T05:21:22;9.4;67.3
80192;SHT31;69513;51.990;5.704;2023-04-30T05:23:53;9.4;67.3
80192;SHT31;69513;51.990;5.704;2023-04-30T05:26:22;9.4;67.4
80192;SHT31;69513;51.990;5.704;2023-04-30T05:28:53;9.4;67.4
80192;SHT31;69513;51.990;5.704;2023-04-30T05:31:22;9.4;67.4
80192;SHT31;69513;51.990;5.704;2023-04-30T05:33:52;9.5;67.7
80192;SHT31;69513;51.990;5.704;2023-04-30T05:36:21;9.5;67.6
80192;SHT31;69513;51.990;5.704;2023-04-30T05:38:51;9.5;67.8
80192;SHT31;69513;51.990;5.704;2023-04-30T05:41:21;9.6;67.9
80192;SHT31;69513;51.990;5.704;2023-04-30T05:43:52;9.6;68.0
80192;SHT31;69513;51.990;5.704;2023-04-30T05:46:21;9.6;67.9
80192;SHT31;69513;51.990;5.704;2023-04-30T05:48:51;9.6;68.5
80192;SHT31;69513;51.990;5.704;2023-04-30T05:51:22;9.7;68.7
80192;SHT31;69513;51.990;5.704;2023-04-30T05:53:53;9.7;68.8
80192;SHT31;69513;51.990;5.704;2023-04-30T05:56:26;9.7;69.2
80192;SHT31;69513;51.990;5.704;2023-04-30T05:58:56;9.8;69.3
80192;SHT31;69513;51.990;5.704;2023-04-30T06:01:26;9.8;69.3
80192;SHT31;69513;51.990;5.704;2023-04-30T06:03:56;9.9;69.2
80192;SHT31;69513;51.990;5.704;2023-04-30T06:06:30;9.9;69.5
80192;SHT31;69513;51.990;5.704;2023-04-30T06:09:00;10.0;69.3
80192;SHT31;69513;51.990;5.704;2023-04-30T06:11:31;10.0;69.4
80192;SHT31;69513;51.990;5.704;2023-04-30T06:14:03;10.0;69.7
80192;SHT31;69513;51.990;5.704;2023-04-30T06:16:33;10.1;69.6
80192;SHT31;69513;51.990;5.704;2023-04-30T06:19:04;10.1;69.6
80192;SHT31;69513;51.990;5.704;2023-04-30T06:21:34;10.2;69.8
80192;SHT31;69513;51.990;5.704;2023-04-30T06:24:06;10.3;69.7
80192;SHT31;69513;51.990;5.704;2023-04-30T06:26:39;10.3;70.2
80192;SHT31;69513;51.990;5.704;2023-04-30T06:29:08;10.4;69.4
80192;SHT31;69513;51.990;5.704;2023-04-30T06:31:38;10.4;69.6
80192;SHT31;69513;51.990;5.704;2023-04-30T06:34:07;10.5;70.0
80192;SHT31;69513;51.990;5.704;2023-04-30T06:36:38;10.5;69.5
80192;SHT31;69513;51.990;5.704;2023-04-30T06:39:09;10.6;69.4
80192;SHT31;69513;51.990;5.704;2023-04-30T06:41:38;10.6;69.1
80192;SHT31;69513;51.990;5.704;2023-04-30T06:44:09;10.7;69.2
80192;SHT31;69513;51.990;5.704;2023-04-30T06:46:39;10.7;68.8
80192;SHT31;69513;51.990;5.704;2023-04-30T06:49:10;10.8;68.8
80192;SHT31;69513;51.990;5.704;2023-04-30T06:51:41;10.9;69.0
80192;SHT31;69513;51.990;5.704;2023-04-30T06:54:11;10.9;68.6
80192;SHT31;69513;51.990;5.704;2023-04-30T06:56:40;11.0;67.6
80192;SHT31;69513;51.990;5.704;2023-04-30T06:59:12;11.0;67.8
80192;SHT31;69513;51.990;5.704;2023-04-30T07:01:41;11.1;66.9
80192;SHT31;69513;51.990;5.704;2023-04-30T07:04:11;11.1;67.7
80192;SHT31;69513;51.990;5.704;2023-04-30T07:06:42;11.2;67.3
80192;SHT31;69513;51.990;5.704;2023-04-30T07:09:14;11.2;67.1
80192;SHT31;69513;51.990;5.704;2023-04-30T07:11:45;11.3;66.3
80192;SHT31;69513;51.990;5.704;2023-04-30T07:14:15;11.3;66.1
80192;SHT31;69513;51.990;5.704;2023-04-30T07:16:45;11.4;65.0
80192;SHT31;69513;51.990;5.704;2023-04-30T07:19:14;11.4;66.1
80192;SHT31;69513;51.990;5.704;2023-04-30T07:21:44;11.5;65.8
80192;SHT31;69513;51.990;5.704;2023-04-30T07:24:13;11.5;65.6
80192;SHT31;69513;51.990;5.704;2023-04-30T07:26:45;11.6;65.4
80192;SHT31;69513;51.990;5.704;2023-04-30T07:29:14;11.7;65.2
80192;SHT31;69513;51.990;5.704;2023-04-30T07:31:45;11.7;64.3
80192;SHT31;69513;51.990;5.704;2023-04-30T07:34:14;11.8;63.7
80192;SHT31;69513;51.990;5.704;2023-04-30T07:36:44;11.8;64.5
80192;SHT31;69513;51.990;5.704;2023-04-30T07:39:13;11.9;63.6
80192;SHT31;69513;51.990;5.704;2023-04-30T07:41:44;11.9;63.7
80192;SHT31;69513;51.990;5.704;2023-04-30T07:44:13;12.0;64.0
80192;SHT31;69513;51.990;5.704;2023-04-30T07:46:45;12.0;63.7
80192;SHT31;69513;51.990;5.704;2023-04-30T07:49:14;12.1;63.7
80192;SHT31;69513;51.990;5.704;2023-04-30T07:51:45;12.1;63.8
80192;SHT31;69513;51.990;5.704;2023-04-30T07:54:15;12.2;63.4
80192;SHT31;69513;51.990;5.704;2023-04-30T07:56:44;12.3;62.4
80192;SHT31;69513;51.990;5.704;2023-04-30T07:59:15;12.3;62.9
80192;SHT31;69513;51.990;5.704;2023-04-30T08:01:45;12.4;61.0
80192;SHT31;69513;51.990;5.704;2023-04-30T08:04:15;12.4;62.4
80192;SHT31;69513;51.990;5.704;2023-04-30T08:06:45;12.4;61.6
80192;SHT31;69513;51.990;5.704;2023-04-30T08:09:15;12.5;62.0
80192;SHT31;69513;51.990;5.704;2023-04-30T08:11:44;12.5;62.1
80192;SHT31;69513;51.990;5.704;2023-04-30T08:14:14;12.6;61.8
80192;SHT31;69513;51.990;5.704;2023-04-30T08:16:44;12.6;61.9
80192;SHT31;69513;51.990;5.704;2023-04-30T08:19:13;12.7;62.1
80192;SHT31;69513;51.990;5.704;2023-04-30T08:21:43;12.8;62.2
80192;SHT31;69513;51.990;5.704;2023-04-30T08:24:13;12.8;62.0
80192;SHT31;69513;51.990;5.704;2023-04-30T08:26:43;12.9;61.6
80192;SHT31;69513;51.990;5.704;2023-04-30T08:29:14;12.9;60.3
80192;SHT31;69513;51.990;5.704;2023-04-30T08:31:44;13.0;59.6
80192;SHT31;69513;51.990;5.704;2023-04-30T08:34:14;13.0;59.8
80192;SHT31;69513;51.990;5.704;2023-04-30T08:36:43;13.1;59.7
80192;SHT31;69513;51.990;5.704;2023-04-30T08:39:13;13.1;60.3
80192;SHT31;69513;51.990;5.704;2023-04-30T08:41:45;13.2;60.5
80192;SHT31;69513;51.990;5.704;2023-04-30T08:44:24;13.2;59.7
80192;SHT31;69513;51.990;5.704;2023-04-30T08:46:57;13.3;59.2
80192;SHT31;69513;51.990;5.704;2023-04-30T08:49:29;13.3;59.0
80192;SHT31;69513;51.990;5.704;2023-04-30T08:52:01;13.4;58.4
80192;SHT31;69513;51.990;5.704;2023-04-30T08:54:36;13.4;58.3
80192;SHT31;69513;51.990;5.704;2023-04-30T08:57:06;13.5;57.4
80192;SHT31;69513;51.990;5.704;2023-04-30T08:59:36;13.5;58.2
80192;SHT31;69513;51.990;5.704;2023-04-30T09:02:07;13.6;57.8
80192;SHT31;69513;51.990;5.704;2023-04-30T09:04:38;13.6;58.5
80192;SHT31;69513;51.990;5.704;2023-04-30T09:07:10;13.7;57.1
80192;SHT31;69513;51.990;5.704;2023-04-30T09:09:42;13.8;57.8
80192;SHT31;69513;51.990;5.704;2023-04-30T09:12:15;13.8;57.1
80192;SHT31;69513;51.990;5.704;2023-04-30T09:15:02;13.9;56.0
80192;SHT31;69513;51.990;5.704;2023-04-30T09:17:35;14.0;57.2
80192;SHT31;69513;51.990;5.704;2023-04-30T09:20:11;14.0;57.0
80192;SHT31;69513;51.990;5.704;2023-04-30T09:22:42;14.1;56.4
80192;SHT31;69513;51.990;5.704;2023-04-30T09:25:13;14.2;54.9
80192;SHT31;69513;51.990;5.704;2023-04-30T09:27:44;14.3;55.9
80192;SHT31;69513;51.990;5.704;2023-04-30T09:30:32;14.4;54.8
80192;SHT31;69513;51.990;5.704;2023-04-30T09:33:04;14.4;54.9
80192;SHT31;69513;51.990;5.704;2023-04-30T09:35:37;14.5;53.4
80192;SHT31;69513;51.990;5.704;2023-04-30T09:38:28;14.6;53.6
80192;SHT31;69513;51.990;5.704;2023-04-30T09:41:01;14.7;53.7
80192;SHT31;69513;51.990;5.704;2023-04-30T09:43:31;14.7;54.5
80192;SHT31;69513;51.990;5.704;2023-04-30T09:46:03;14.8;54.4
80192;SHT31;69513;51.990;5.704;2023-04-30T09:48:34;14.9;55.0
80192;SHT31;69513;51.990;5.704;2023-04-30T09:51:09;15.0;52.8
80192;SHT31;69513;51.990;5.704;2023-04-30T09:53:43;15.1;53.4
80192;SHT31;69513;51.990;5.704;2023-04-30T09:56:18;15.2;53.0
80192;SHT31;69513;51.990;5.704;2023-04-30T09:58:52;15.3;53.2
80192;SHT31;69513;51.990;5.704;2023-04-30T10:01:25;15.4;53.5
80192;SHT31;69513;51.990;5.704;2023-04-30T10:03:59;15.4;51.3
80192;SHT31;69513;51.990;5.704;2023-04-30T10:06:30;15.5;51.4
80192;SHT31;69513;51.990;5.704;2023-04-30T10:09:05;15.6;49.1
80192;SHT31;69513;51.990;5.704;2023-04-30T10:11:40;15.6;50.5
80192;SHT31;69513;51.990;5.704;2023-04-30T10:14:16;15.7;51.6
80192;SHT31;69513;51.990;5.704;2023-04-30T10:16:56;15.8;51.1
80192;SHT31;69513;51.990;5.704;2023-04-30T10:19:30;15.9;51.2
80192;SHT31;69513;51.990;5.704;2023-04-30T10:22:04;16.0;51.1
80192;SHT31;69513;51.990;5.704;2023-04-30T10:24:38;16.1;50.4
80192;SHT31;69513;51.990;5.704;2023-04-30T10:27:09;16.2;49.6
80192;SHT31;69513;51.990;5.704;2023-04-30T10:29:38;16.3;50.4
80192;SHT31;69513;51.990;5.704;2023-04-30T10:32:11;16.4;50.4
80192;SHT31;69513;51.990;5.704;2023-04-30T10:34:50;16.5;50.2
80192;SHT31;69513;51.990;5.704;2023-04-30T10:37:33;16.6;50.8
80192;SHT31;69513;51.990;5.704;2023-04-30T10:40:05;16.7;49.8
80192;SHT31;69513;51.990;5.704;2023-04-30T10:42:36;16.8;48.3
80192;SHT31;69513;51.990;5.704;2023-04-30T10:45:11;16.9;47.7
80192;SHT31;69513;51.990;5.704;2023-04-30T10:47:45;17.0;47.4
80192;SHT31;69513;51.990;5.704;2023-04-30T10:50:15;17.0;47.5
80192;SHT31;69513;51.990;5.704;2023-04-30T10:52:46;17.1;49.2
80192;SHT31;69513;51.990;5.704;2023-04-30T10:55:16;17.2;48.9
80192;SHT31;69513;51.990;5.704;2023-04-30T10:57:47;17.2;47.8
80192;SHT31;69513;51.990;5.704;2023-04-30T11:00:25;17.3;48.1
80192;SHT31;69513;51.990;5.704;2023-04-30T11:03:03;17.4;49.2
80192;SHT31;69513;51.990;5.704;2023-04-30T11:05:37;17.4;48.9
80192;SHT31;69513;51.990;5.704;2023-04-30T11:08:10;17.5;48.0
80192;SHT31;69513;51.990;5.704;2023-04-30T11:10:57;17.6;48.6
80192;SHT31;69513;51.990;5.704;2023-04-30T11:13:40;17.7;48.9
80192;SHT31;69513;51.990;5.704;2023-04-30T11:16:11;17.8;46.8
80192;SHT31;69513;51.990;5.704;2023-04-30T11:18:46;17.9;46.8
80192;SHT31;69513;51.990;5.704;2023-04-30T11:21:20;18.0;47.4
80192;SHT31;69513;51.990;5.704;2023-04-30T11:23:50;18.1;47.5
80192;SHT31;69513;51.990;5.704;2023-04-30T11:26:21;18.3;47.9
80192;SHT31;69513;51.990;5.704;2023-04-30T11:28:53;18.4;45.9
80192;SHT31;69513;51.990;5.704;2023-04-30T11:31:34;18.5;46.3
80192;SHT31;69513;51.990;5.704;2023-04-30T11:34:07;18.7;45.9
80192;SHT31;69513;51.990;5.704;2023-04-30T11:36:38;18.8;45.8
80192;SHT31;69513;51.990;5.704;2023-04-30T11:39:11;18.9;47.5
80192;SHT31;69513;51.990;5.704;2023-04-30T11:41:43;19.0;43.7
80192;SHT31;69513;51.990;5.704;2023-04-30T11:44:26;19.1;45.1
80192;SHT31;69513;51.990;5.704;2023-04-30T11:46:57;19.2;44.7
80192;SHT31;69513;51.990;5.704;2023-04-30T11:49:29;19.3;45.5
80192;SHT31;69513;51.990;5.704;2023-04-30T11:52:00;19.4;43.4
80192;SHT31;69513;51.990;5.704;2023-04-30T11:54:36;19.6;44.1
80192;SHT31;69513;51.990;5.704;2023-04-30T11:57:06;19.7;44.7
80192;SHT31;69513;51.990;5.704;2023-04-30T11:59:41;19.8;43.3
80192;SHT31;69513;51.990;5.704;2023-04-30T12:02:16;20.0;44.4
80192;SHT31;69513;51.990;5.704;2023-04-30T12:04:46;20.1;43.5
80192;SHT31;69513;51.990;5.704;2023-04-30T12:07:17;20.2;45.0
80192;SHT31;69513;51.990;5.704;2023-04-30T12:09:53;20.4;44.3
80192;SHT31;69513;51.990;5.704;2023-04-30T12:12:28;20.6;44.1
80192;SHT31;69513;51.990;5.704;2023-04-30T12:15:12;20.8;42.0
80192;SHT31;69513;51.990;5.704;2023-04-30T12:17:45;21.0;43.4
80192;SHT31;69513;51.990;5.704;2023-04-30T12:20:15;21.2;42.4
80192;SHT31;69513;51.990;5.704;2023-04-30T12:22:46;21.4;41.4
80192;SHT31;69513;51.990;5.704;2023-04-30T12:25:17;21.5;40.6
80192;SHT31;69513;51.990;5.704;2023-04-30T12:27:50;21.7;39.3
80192;SHT31;69513;51.990;5.704;2023-04-30T12:30:22;21.7;40.3
80192;SHT31;69513;51.990;5.704;2023-04-30T12:32:56;21.8;39.1
80192;SHT31;69513;51.990;5.704;2023-04-30T12:35:29;21.8;38.5
80192;SHT31;69513;51.990;5.704;2023-04-30T12:38:06;21.8;39.2
80192;SHT31;69513;51.990;5.704;2023-04-30T12:40:38;21.8;39.4
80192;SHT31;69513;51.990;5.704;2023-04-30T12:43:09;21.8;38.2
80192;SHT31;69513;51.990;5.704;2023-04-30T12:45:46;21.7;40.0
80192;SHT31;69513;51.990;5.704;2023-04-30T12:48:21;21.6;40.8
80192;SHT31;69513;51.990;5.704;2023-04-30T12:50:57;21.6;39.6
80192;SHT31;69513;51.990;5.704;2023-04-30T12:53:29;21.6;39.3
80192;SHT31;69513;51.990;5.704;2023-04-30T12:56:35;21.6;38.0
80192;SHT31;69513;51.990;5.704;2023-04-30T12:59:15;21.5;39.2
80192;SHT31;69513;51.990;5.704;2023-04-30T13:01:46;21.5;37.7
80192;SHT31;69513;51.990;5.704;2023-04-30T13:04:16;21.5;38.2
80192;SHT31;69513;51.990;5.704;2023-04-30T13:06:46;21.4;37.0
80192;SHT31;69513;51.990;5.704;2023-04-30T13:09:16;21.3;38.4
80192;SHT31;69513;51.990;5.704;2023-04-30T13:11:45;21.3;38.3
80192;SHT31;69513;51.990;5.704;2023-04-30T13:14:16;21.2;39.0
80192;SHT31;69513;51.990;5.704;2023-04-30T13:16:47;21.2;39.1
80192;SHT31;69513;51.990;5.704;2023-04-30T13:19:20;21.2;37.9
80192;SHT31;69513;51.990;5.704;2023-04-30T13:21:49;21.1;38.1
80192;SHT31;69513;51.990;5.704;2023-04-30T13:24:19;21.1;38.9
80192;SHT31;69513;51.990;5.704;2023-04-30T13:26:49;21.1;39.0
80192;SHT31;69513;51.990;5.704;2023-04-30T13:29:19;21.0;38.4
80192;SHT31;69513;51.990;5.704;2023-04-30T13:31:49;21.0;37.6
80192;SHT31;69513;51.990;5.704;2023-04-30T13:34:20;21.0;37.6
80192;SHT31;69513;51.990;5.704;2023-04-30T13:36:49;21.0;38.8
80192;SHT31;69513;51.990;5.704;2023-04-30T13:39:22;21.1;39.0
80192;SHT31;69513;51.990;5.704;2023-04-30T13:41:51;21.1;38.8
80192;SHT31;69513;51.990;5.704;2023-04-30T13:44:21;21.3;39.0
80192;SHT31;69513;51.990;5.704;2023-04-30T13:46:51;21.6;37.8
80192;SHT31;69513;51.990;5.704;2023-04-30T13:49:22;22.1;36.7
80192;SHT31;69513;51.990;5.704;2023-04-30T13:51:52;22.7;36.4
80192;SHT31;69513;51.990;5.704;2023-04-30T13:54:22;23.2;35.3
80192;SHT31;69513;51.990;5.704;2023-04-30T13:56:52;23.6;33.2
80192;SHT31;69513;51.990;5.704;2023-04-30T13:59:22;23.9;33.5
80192;SHT31;69513;51.990;5.704;2023-04-30T14:01:51;24.1;33.4
80192;SHT31;69513;51.990;5.704;2023-04-30T14:04:21;24.3;32.8
80192;SHT31;69513;51.990;5.704;2023-04-30T14:06:51;24.4;33.1
80192;SHT31;69513;51.990;5.704;2023-04-30T14:09:23;24.5;32.3
80192;SHT31;69513;51.990;5.704;2023-04-30T14:11:55;24.5;32.8
80192;SHT31;69513;51.990;5.704;2023-04-30T14:14:28;24.6;30.6
80192;SHT31;69513;51.990;5.704;2023-04-30T14:16:58;24.5;31.5
80192;SHT31;69513;51.990;5.704;2023-04-30T14:19:28;24.5;33.1
80192;SHT31;69513;51.990;5.704;2023-04-30T14:21:59;24.5;32.2
80192;SHT31;69513;51.990;5.704;2023-04-30T14:24:28;24.4;32.0
80192;SHT31;69513;51.990;5.704;2023-04-30T14:26:58;24.2;31.4
80192;SHT31;69513;51.990;5.704;2023-04-30T14:29:33;24.1;32.5
80192;SHT31;69513;51.990;5.704;2023-04-30T14:32:04;24.0;32.2
80192;SHT31;69513;51.990;5.704;2023-04-30T14:34:36;23.9;33.2
80192;SHT31;69513;51.990;5.704;2023-04-30T14:37:06;23.7;32.8
80192;SHT31;69513;51.990;5.704;2023-04-30T14:39:37;23.5;33.9
80192;SHT31;69513;51.990;5.704;2023-04-30T14:42:06;23.4;33.5
80192;SHT31;69513;51.990;5.704;2023-04-30T14:44:36;23.2;33.8
80192;SHT31;69513;51.990;5.704;2023-04-30T14:47:07;23.1;34.3
80192;SHT31;69513;51.990;5.704;2023-04-30T14:49:37;22.9;33.5
80192;SHT31;69513;51.990;5.704;2023-04-30T14:52:07;22.8;35.0
80192;SHT31;69513;51.990;5.704;2023-04-30T14:54:37;22.6;34.1
80192;SHT31;69513;51.990;5.704;2023-04-30T14:57:07;22.5;34.6
80192;SHT31;69513;51.990;5.704;2023-04-30T14:59:37;22.4;34.7
80192;SHT31;69513;51.990;5.704;2023-04-30T15:02:08;22.3;34.9
80192;SHT31;69513;51.990;5.704;2023-04-30T15:04:40;22.2;35.7
80192;SHT31;69513;51.990;5.704;2023-04-30T15:07:13;22.1;36.2
80192;SHT31;69513;51.990;5.704;2023-04-30T15:09:43;22.0;36.5
80192;SHT31;69513;51.990;5.704;2023-04-30T15:12:14;22.0;36.3
80192;SHT31;69513;51.990;5.704;2023-04-30T15:14:43;22.0;35.4
80192;SHT31;69513;51.990;5.704;2023-04-30T15:17:14;21.9;35.7
80192;SHT31;69513;51.990;5.704;2023-04-30T15:19:43;21.9;36.0
80192;SHT31;69513;51.990;5.704;2023-04-30T15:22:14;21.9;35.8
80192;SHT31;69513;51.990;5.704;2023-04-30T15:24:45;21.8;36.5
80192;SHT31;69513;51.990;5.704;2023-04-30T15:27:15;21.8;36.3
80192;SHT31;69513;51.990;5.704;2023-04-30T15:29:44;21.7;37.3
80192;SHT31;69513;51.990;5.704;2023-04-30T15:32:15;21.7;37.9
80192;SHT31;69513;51.990;5.704;2023-04-30T15:34:44;21.7;38.2
80192;SHT31;69513;51.990;5.704;2023-04-30T15:37:17;21.7;37.8
80192;SHT31;69513;51.990;5.704;2023-04-30T15:39:47;21.8;36.3
80192;SHT31;69513;51.990;5.704;2023-04-30T15:42:17;21.8;35.2
80192;SHT31;69513;51.990;5.704;2023-04-30T15:44:47;21.9;35.4
80192;SHT31;69513;51.990;5.704;2023-04-30T15:47:19;21.9;34.4
80192;SHT31;69513;51.990;5.704;2023-04-30T15:49:49;22.0;35.1
80192;SHT31;69513;51.990;5.704;2023-04-30T15:52:20;22.1;35.2
80192;SHT31;69513;51.990;5.704;2023-04-30T15:54:49;22.1;36.3
80192;SHT31;69513;51.990;5.704;2023-04-30T15:57:22;22.2;36.2
80192;SHT31;69513;51.990;5.704;2023-04-30T15:59:53;22.5;36.5
80192;SHT31;69513;51.990;5.704;2023-04-30T16:02:23;22.8;34.9
80192;SHT31;69513;51.990;5.704;2023-04-30T16:04:52;23.3;35.6
80192;SHT31;69513;51.990;5.704;2023-04-30T16:07:22;23.8;34.2
80192;SHT31;69513;51.990;5.704;2023-04-30T16:09:55;24.0;32.6
80192;SHT31;69513;51.990;5.704;2023-04-30T16:12:25;24.1;33.3
80192;SHT31;69513;51.990;5.704;2023-04-30T16:14:57;24.0;32.1
80192;SHT31;69513;51.990;5.704;2023-04-30T16:17:26;24.0;32.5
80192;SHT31;69513;51.990;5.704;2023-04-30T16:19:59;23.8;32.5
80192;SHT31;69513;51.990;5.704;2023-04-30T16:22:32;23.7;32.8
80192;SHT31;69513;51.990;5.704;2023-04-30T16:25:06;23.5;33.2
80192;SHT31;69513;51.990;5.704;2023-04-30T16:27:38;23.3;33.5
80192;SHT31;69513;51.990;5.704;2023-04-30T16:30:09;23.2;34.0
80192;SHT31;69513;51.990;5.704;2023-04-30T16:32:40;23.1;35.0
80192;SHT31;69513;51.990;5.704;2023-04-30T16:35:12;23.1;34.5